sensor_id;sensor_type;location;lat;lon;timestamp;P1;durP1;ratioP1;P2;durP2;ratioP2
11319;SDS011;5715;48.234;14.320;2022-12-18T00:02:20;18.67;;;9.67;;
11319;SDS011;5715;48.234;14.320;2022-12-18T00:05:08;6.30;;;5.77;;
11319;SDS011;5715;48.234;14.320;2022-12-18T00:07:56;18.80;;;8.43;;
11319;SDS011;5715;48.234;14.320;2022-12-18T00:10:43;14.17;;;7.53;;
11319;SDS011;5715;48.234;14.320;2022-12-18T00:13:32;14.50;;;8.10;;
11319;SDS011;5715;48.234;14.320;2022-12-18T00:16:23;18.90;;;9.27;;
11319;SDS011;5715;48.234;14.320;2022-12-18T00:19:12;9.83;;;6.83;;
11319;SDS011;5715;48.234;14.320;2022-12-18T00:22:01;18.27;;;10.20;;
11319;SDS011;5715;48.234;14.320;2022-12-18T00:24:49;12.33;;;9.73;;
11319;SDS011;5715;48.234;14.320;2022-12-18T00:27:36;23.17;;;7.70;;
11319;SDS011;5715;48.234;14.320;2022-12-18T00:30:24;10.17;;;8.33;;
11319;SDS011;5715;48.234;14.320;2022-12-18T00:33:12;34.37;;;7.00;;
11319;SDS011;5715;48.234;14.320;2022-12-18T00:36:09;10.10;;;7.67;;
11319;SDS011;5715;48.234;14.320;2022-12-18T00:39:01;14.87;;;8.30;;
11319;SDS011;5715;48.234;14.320;2022-12-18T00:41:52;16.83;;;8.97;;
11319;SDS011;5715;48.234;14.320;2022-12-18T00:44:58;15.67;;;9.10;;
11319;SDS011;5715;48.234;14.320;2022-12-18T00:47:46;13.67;;;9.10;;
11319;SDS011;5715;48.234;14.320;2022-12-18T00:50:33;10.17;;;7.50;;
11319;SDS011;5715;48.234;14.320;2022-12-18T00:53:21;14.47;;;8.57;;
11319;SDS011;5715;48.234;14.320;2022-12-18T00:56:09;11.63;;;9.63;;
11319;SDS011;5715;48.234;14.320;2022-12-18T00:58:56;11.03;;;8.63;;
11319;SDS011;5715;48.234;14.320;2022-12-18T01:01:44;14.53;;;8.93;;
11319;SDS011;5715;48.234;14.320;2022-12-18T01:04:32;10.00;;;8.93;;
11319;SDS011;5715;48.234;14.320;2022-12-18T01:07:20;16.00;;;7.43;;
11319;SDS011;5715;48.234;14.320;2022-12-18T01:10:09;11.67;;;7.93;;
11319;SDS011;5715;48.234;14.320;2022-12-18T01:12:58;13.77;;;8.80;;
11319;SDS011;5715;48.234;14.320;2022-12-18T01:15:50;9.77;;;7.83;;
11319;SDS011;5715;48.234;14.320;2022-12-18T01:18:38;19.07;;;12.70;;
11319;SDS011;5715;48.234;14.320;2022-12-18T01:21:26;14.20;;;9.93;;
11319;SDS011;5715;48.234;14.320;2022-12-18T01:24:14;18.90;;;8.27;;
11319;SDS011;5715;48.234;14.320;2022-12-18T01:27:02;11.57;;;8.80;;
11319;SDS011;5715;48.234;14.320;2022-12-18T01:29:49;10.33;;;9.17;;
11319;SDS011;5715;48.234;14.320;2022-12-18T01:32:37;13.07;;;8.30;;
11319;SDS011;5715;48.234;14.320;2022-12-18T01:35:25;9.77;;;8.77;;
11319;SDS011;5715;48.234;14.320;2022-12-18T01:38:13;11.43;;;8.87;;
11319;SDS011;5715;48.234;14.320;2022-12-18T01:41:00;15.27;;;9.63;;
11319;SDS011;5715;48.234;14.320;2022-12-18T01:46:43;13.60;;;9.20;;
11319;SDS011;5715;48.234;14.320;2022-12-18T01:49:31;12.20;;;7.67;;
11319;SDS011;5715;48.234;14.320;2022-12-18T01:52:19;22.17;;;7.60;;
11319;SDS011;5715;48.234;14.320;2022-12-18T01:55:09;12.03;;;9.23;;
11319;SDS011;5715;48.234;14.320;2022-12-18T01:57:59;21.17;;;8.33;;
11319;SDS011;5715;48.234;14.320;2022-12-18T02:00:48;18.83;;;7.10;;
11319;SDS011;5715;48.234;14.320;2022-12-18T02:03:36;15.33;;;8.00;;
11319;SDS011;5715;48.234;14.320;2022-12-18T02:06:27;11.23;;;9.90;;
11319;SDS011;5715;48.234;14.320;2022-12-18T02:09:28;16.47;;;8.53;;
11319;SDS011;5715;48.234;14.320;2022-12-18T02:12:52;15.97;;;7.27;;
11319;SDS011;5715;48.234;14.320;2022-12-18T02:19:21;10.07;;;7.60;;
11319;SDS011;5715;48.234;14.320;2022-12-18T02:23:08;5.43;;;4.60;;
11319;SDS011;5715;48.234;14.320;2022-12-18T02:26:34;5.10;;;3.83;;
11319;SDS011;5715;48.234;14.320;2022-12-18T02:29:39;6.03;;;3.47;;
11319;SDS011;5715;48.234;14.320;2022-12-18T02:32:49;7.93;;;5.30;;
11319;SDS011;5715;48.234;14.320;2022-12-18T02:35:40;5.93;;;5.40;;
11319;SDS011;5715;48.234;14.320;2022-12-18T02:38:31;6.10;;;3.77;;
11319;SDS011;5715;48.234;14.320;2022-12-18T02:41:22;4.83;;;4.33;;
11319;SDS011;5715;48.234;14.320;2022-12-18T02:44:12;11.60;;;4.93;;
11319;SDS011;5715;48.234;14.320;2022-12-18T02:47:00;7.53;;;3.63;;
11319;SDS011;5715;48.234;14.320;2022-12-18T02:49:53;8.97;;;6.23;;
11319;SDS011;5715;48.234;14.320;2022-12-18T02:53:17;5.20;;;4.47;;
11319;SDS011;5715;48.234;14.320;2022-12-18T02:59:23;12.20;;;6.83;;
11319;SDS011;5715;48.234;14.320;2022-12-18T03:02:39;7.00;;;5.00;;
11319;SDS011;5715;48.234;14.320;2022-12-18T03:05:47;4.30;;;3.90;;
11319;SDS011;5715;48.234;14.320;2022-12-18T03:08:44;11.00;;;5.63;;
11319;SDS011;5715;48.234;14.320;2022-12-18T03:11:40;5.33;;;4.37;;
11319;SDS011;5715;48.234;14.320;2022-12-18T03:14:59;5.47;;;4.63;;
11319;SDS011;5715;48.234;14.320;2022-12-18T03:18:57;9.63;;;5.00;;
11319;SDS011;5715;48.234;14.320;2022-12-18T03:21:22;8.13;;;4.37;;
11319;SDS011;5715;48.234;14.320;2022-12-18T03:24:18;6.67;;;4.93;;
11319;SDS011;5715;48.234;14.320;2022-12-18T03:27:10;6.53;;;3.93;;
11319;SDS011;5715;48.234;14.320;2022-12-18T03:30:04;9.10;;;4.80;;
11319;SDS011;5715;48.234;14.320;2022-12-18T03:33:06;24.77;;;4.70;;
11319;SDS011;5715;48.234;14.320;2022-12-18T03:36:31;6.03;;;5.43;;
11319;SDS011;5715;48.234;14.320;2022-12-18T03:39:19;4.27;;;3.87;;
11319;SDS011;5715;48.234;14.320;2022-12-18T03:42:12;5.97;;;4.57;;
11319;SDS011;5715;48.234;14.320;2022-12-18T03:51:14;8.40;;;6.53;;
11319;SDS011;5715;48.234;14.320;2022-12-18T03:54:14;15.40;;;4.97;;
11319;SDS011;5715;48.234;14.320;2022-12-18T03:57:09;3.40;;;3.20;;
11319;SDS011;5715;48.234;14.320;2022-12-18T04:00:09;6.40;;;5.50;;
11319;SDS011;5715;48.234;14.320;2022-12-18T04:03:03;6.73;;;4.80;;
11319;SDS011;5715;48.234;14.320;2022-12-18T04:05:55;6.83;;;6.03;;
11319;SDS011;5715;48.234;14.320;2022-12-18T04:08:45;13.87;;;4.23;;
11319;SDS011;5715;48.234;14.320;2022-12-18T04:11:35;7.40;;;5.07;;
11319;SDS011;5715;48.234;14.320;2022-12-18T04:14:22;9.27;;;7.50;;
11319;SDS011;5715;48.234;14.320;2022-12-18T04:17:10;5.83;;;5.23;;
11319;SDS011;5715;48.234;14.320;2022-12-18T04:19:58;7.20;;;4.23;;
11319;SDS011;5715;48.234;14.320;2022-12-18T04:22:46;5.17;;;4.53;;
11319;SDS011;5715;48.234;14.320;2022-12-18T04:25:34;7.80;;;6.37;;
11319;SDS011;5715;48.234;14.320;2022-12-18T04:28:22;8.07;;;5.97;;
11319;SDS011;5715;48.234;14.320;2022-12-18T04:31:10;9.47;;;4.77;;
11319;SDS011;5715;48.234;14.320;2022-12-18T04:33:57;8.30;;;4.90;;
11319;SDS011;5715;48.234;14.320;2022-12-18T04:36:45;4.90;;;4.57;;
11319;SDS011;5715;48.234;14.320;2022-12-18T04:39:33;9.17;;;5.13;;
11319;SDS011;5715;48.234;14.320;2022-12-18T04:42:22;4.90;;;3.50;;
11319;SDS011;5715;48.234;14.320;2022-12-18T04:45:10;2.87;;;2.63;;
11319;SDS011;5715;48.234;14.320;2022-12-18T04:47:58;3.33;;;2.73;;
11319;SDS011;5715;48.234;14.320;2022-12-18T04:50:48;5.27;;;4.50;;
11319;SDS011;5715;48.234;14.320;2022-12-18T04:53:36;4.00;;;3.70;;
11319;SDS011;5715;48.234;14.320;2022-12-18T04:56:24;12.13;;;5.90;;
11319;SDS011;5715;48.234;14.320;2022-12-18T04:59:12;4.53;;;4.13;;
11319;SDS011;5715;48.234;14.320;2022-12-18T05:01:59;5.30;;;4.27;;
11319;SDS011;5715;48.234;14.320;2022-12-18T05:04:47;7.03;;;4.23;;
11319;SDS011;5715;48.234;14.320;2022-12-18T05:07:35;21.03;;;7.87;;
11319;SDS011;5715;48.234;14.320;2022-12-18T05:10:23;4.00;;;3.20;;
11319;SDS011;5715;48.234;14.320;2022-12-18T05:13:11;16.13;;;5.60;;
11319;SDS011;5715;48.234;14.320;2022-12-18T05:15:58;3.83;;;3.53;;
11319;SDS011;5715;48.234;14.320;2022-12-18T05:18:46;2.20;;;2.10;;
11319;SDS011;5715;48.234;14.320;2022-12-18T05:21:34;5.63;;;5.10;;
11319;SDS011;5715;48.234;14.320;2022-12-18T05:24:21;4.63;;;4.20;;
11319;SDS011;5715;48.234;14.320;2022-12-18T05:27:09;5.10;;;4.67;;
11319;SDS011;5715;48.234;14.320;2022-12-18T05:29:56;4.47;;;4.07;;
11319;SDS011;5715;48.234;14.320;2022-12-18T05:32:44;5.60;;;3.47;;
11319;SDS011;5715;48.234;14.320;2022-12-18T05:35:31;3.03;;;2.83;;
11319;SDS011;5715;48.234;14.320;2022-12-18T05:38:20;3.93;;;3.53;;
11319;SDS011;5715;48.234;14.320;2022-12-18T05:41:09;3.83;;;3.40;;
11319;SDS011;5715;48.234;14.320;2022-12-18T05:43:57;5.63;;;3.47;;
11319;SDS011;5715;48.234;14.320;2022-12-18T05:46:46;5.47;;;2.30;;
11319;SDS011;5715;48.234;14.320;2022-12-18T05:49:33;4.33;;;2.70;;
11319;SDS011;5715;48.234;14.320;2022-12-18T05:52:21;2.93;;;1.77;;
11319;SDS011;5715;48.234;14.320;2022-12-18T05:55:09;2.53;;;2.40;;
11319;SDS011;5715;48.234;14.320;2022-12-18T05:57:57;3.83;;;3.27;;
11319;SDS011;5715;48.234;14.320;2022-12-18T06:00:45;3.07;;;2.90;;
11319;SDS011;5715;48.234;14.320;2022-12-18T06:03:33;3.83;;;3.57;;
11319;SDS011;5715;48.234;14.320;2022-12-18T06:06:21;4.50;;;3.97;;
11319;SDS011;5715;48.234;14.320;2022-12-18T06:09:12;4.40;;;3.40;;
11319;SDS011;5715;48.234;14.320;2022-12-18T06:12:00;2.97;;;2.77;;
11319;SDS011;5715;48.234;14.320;2022-12-18T06:14:47;3.30;;;3.00;;
11319;SDS011;5715;48.234;14.320;2022-12-18T06:17:35;1.80;;;1.70;;
11319;SDS011;5715;48.234;14.320;2022-12-18T06:20:23;4.50;;;3.87;;
11319;SDS011;5715;48.234;14.320;2022-12-18T06:23:18;3.67;;;2.57;;
11319;SDS011;5715;48.234;14.320;2022-12-18T06:26:06;2.10;;;2.00;;
11319;SDS011;5715;48.234;14.320;2022-12-18T06:28:56;4.70;;;3.10;;
11319;SDS011;5715;48.234;14.320;2022-12-18T06:31:44;5.30;;;4.10;;
11319;SDS011;5715;48.234;14.320;2022-12-18T06:34:32;4.43;;;3.23;;
11319;SDS011;5715;48.234;14.320;2022-12-18T06:37:20;3.37;;;2.63;;
11319;SDS011;5715;48.234;14.320;2022-12-18T06:40:12;2.70;;;2.57;;
11319;SDS011;5715;48.234;14.320;2022-12-18T06:43:00;3.03;;;2.83;;
11319;SDS011;5715;48.234;14.320;2022-12-18T06:45:48;4.53;;;2.67;;
11319;SDS011;5715;48.234;14.320;2022-12-18T06:48:39;4.10;;;2.57;;
11319;SDS011;5715;48.234;14.320;2022-12-18T06:51:27;6.57;;;4.40;;
11319;SDS011;5715;48.234;14.320;2022-12-18T06:54:15;3.80;;;3.13;;
11319;SDS011;5715;48.234;14.320;2022-12-18T06:57:02;3.50;;;3.30;;
11319;SDS011;5715;48.234;14.320;2022-12-18T06:59:50;4.13;;;2.63;;
11319;SDS011;5715;48.234;14.320;2022-12-18T07:02:38;5.90;;;3.73;;
11319;SDS011;5715;48.234;14.320;2022-12-18T07:05:27;10.40;;;3.83;;
11319;SDS011;5715;48.234;14.320;2022-12-18T07:08:15;4.70;;;3.63;;
11319;SDS011;5715;48.234;14.320;2022-12-18T07:11:03;2.83;;;2.60;;
11319;SDS011;5715;48.234;14.320;2022-12-18T07:13:52;3.53;;;3.00;;
11319;SDS011;5715;48.234;14.320;2022-12-18T07:16:41;3.57;;;3.33;;
11319;SDS011;5715;48.234;14.320;2022-12-18T07:19:28;3.70;;;2.73;;
11319;SDS011;5715;48.234;14.320;2022-12-18T07:22:17;2.13;;;2.03;;
11319;SDS011;5715;48.234;14.320;2022-12-18T07:25:05;6.10;;;3.80;;
11319;SDS011;5715;48.234;14.320;2022-12-18T07:27:54;5.40;;;2.73;;
11319;SDS011;5715;48.234;14.320;2022-12-18T07:30:42;24.63;;;3.27;;
11319;SDS011;5715;48.234;14.320;2022-12-18T07:33:29;5.23;;;2.93;;
11319;SDS011;5715;48.234;14.320;2022-12-18T07:36:18;14.43;;;4.20;;
11319;SDS011;5715;48.234;14.320;2022-12-18T07:39:10;3.30;;;3.10;;
11319;SDS011;5715;48.234;14.320;2022-12-18T07:41:58;9.00;;;3.73;;
11319;SDS011;5715;48.234;14.320;2022-12-18T07:45:04;5.30;;;2.33;;
11319;SDS011;5715;48.234;14.320;2022-12-18T07:47:53;11.17;;;4.63;;
11319;SDS011;5715;48.234;14.320;2022-12-18T07:50:40;3.53;;;3.17;;
11319;SDS011;5715;48.234;14.320;2022-12-18T07:53:28;6.67;;;3.60;;
11319;SDS011;5715;48.234;14.320;2022-12-18T07:56:15;4.07;;;3.77;;
11319;SDS011;5715;48.234;14.320;2022-12-18T07:59:14;2.97;;;2.77;;
11319;SDS011;5715;48.234;14.320;2022-12-18T08:02:01;4.50;;;3.80;;
11319;SDS011;5715;48.234;14.320;2022-12-18T08:04:49;8.20;;;4.90;;
11319;SDS011;5715;48.234;14.320;2022-12-18T08:07:37;11.00;;;3.77;;
11319;SDS011;5715;48.234;14.320;2022-12-18T08:10:26;5.03;;;3.70;;
11319;SDS011;5715;48.234;14.320;2022-12-18T08:13:13;4.10;;;3.37;;
11319;SDS011;5715;48.234;14.320;2022-12-18T08:16:02;6.97;;;3.60;;
11319;SDS011;5715;48.234;14.320;2022-12-18T08:18:54;4.57;;;4.17;;
11319;SDS011;5715;48.234;14.320;2022-12-18T08:21:41;5.90;;;3.27;;
11319;SDS011;5715;48.234;14.320;2022-12-18T08:24:29;13.83;;;5.93;;
11319;SDS011;5715;48.234;14.320;2022-12-18T08:27:17;3.07;;;2.83;;
11319;SDS011;5715;48.234;14.320;2022-12-18T08:30:20;3.90;;;3.60;;
11319;SDS011;5715;48.234;14.320;2022-12-18T08:33:08;4.53;;;3.43;;
11319;SDS011;5715;48.234;14.320;2022-12-18T08:35:55;3.60;;;3.30;;
11319;SDS011;5715;48.234;14.320;2022-12-18T08:38:45;4.00;;;3.63;;
11319;SDS011;5715;48.234;14.320;2022-12-18T08:41:33;4.10;;;2.73;;
11319;SDS011;5715;48.234;14.320;2022-12-18T08:44:20;4.10;;;2.70;;
11319;SDS011;5715;48.234;14.320;2022-12-18T08:47:27;4.93;;;3.17;;
11319;SDS011;5715;48.234;14.320;2022-12-18T08:50:14;5.53;;;4.13;;
11319;SDS011;5715;48.234;14.320;2022-12-18T08:53:03;4.37;;;3.97;;
11319;SDS011;5715;48.234;14.320;2022-12-18T08:55:50;1.97;;;1.87;;
11319;SDS011;5715;48.234;14.320;2022-12-18T08:58:38;3.50;;;3.17;;
11319;SDS011;5715;48.234;14.320;2022-12-18T09:01:27;7.03;;;3.77;;
11319;SDS011;5715;48.234;14.320;2022-12-18T09:04:15;8.80;;;5.13;;
11319;SDS011;5715;48.234;14.320;2022-12-18T09:07:03;7.43;;;5.20;;
11319;SDS011;5715;48.234;14.320;2022-12-18T09:09:50;5.40;;;4.13;;
11319;SDS011;5715;48.234;14.320;2022-12-18T09:12:38;8.97;;;3.87;;
11319;SDS011;5715;48.234;14.320;2022-12-18T09:15:25;2.13;;;1.93;;
11319;SDS011;5715;48.234;14.320;2022-12-18T09:18:14;8.40;;;4.73;;
11319;SDS011;5715;48.234;14.320;2022-12-18T09:21:08;4.10;;;3.70;;
11319;SDS011;5715;48.234;14.320;2022-12-18T09:24:01;3.73;;;3.47;;
11319;SDS011;5715;48.234;14.320;2022-12-18T09:26:52;3.63;;;3.37;;
11319;SDS011;5715;48.234;14.320;2022-12-18T09:29:43;4.27;;;3.67;;
11319;SDS011;5715;48.234;14.320;2022-12-18T09:32:31;5.53;;;4.53;;
11319;SDS011;5715;48.234;14.320;2022-12-18T09:35:18;3.77;;;3.47;;
11319;SDS011;5715;48.234;14.320;2022-12-18T09:38:06;5.20;;;3.57;;
11319;SDS011;5715;48.234;14.320;2022-12-18T09:40:57;4.63;;;4.27;;
11319;SDS011;5715;48.234;14.320;2022-12-18T09:47:36;3.37;;;3.13;;
11319;SDS011;5715;48.234;14.320;2022-12-18T09:50:31;2.97;;;2.77;;
11319;SDS011;5715;48.234;14.320;2022-12-18T09:53:26;2.87;;;2.67;;
11319;SDS011;5715;48.234;14.320;2022-12-18T09:56:19;5.27;;;2.93;;
11319;SDS011;5715;48.234;14.320;2022-12-18T09:59:54;2.47;;;2.27;;
11319;SDS011;5715;48.234;14.320;2022-12-18T10:02:26;3.47;;;3.10;;
11319;SDS011;5715;48.234;14.320;2022-12-18T10:05:29;3.93;;;3.63;;
11319;SDS011;5715;48.234;14.320;2022-12-18T10:21:32;9.23;;;3.00;;
11319;SDS011;5715;48.234;14.320;2022-12-18T10:27:27;6.60;;;3.30;;
11319;SDS011;5715;48.234;14.320;2022-12-18T10:30:19;6.20;;;3.93;;
11319;SDS011;5715;48.234;14.320;2022-12-18T10:33:16;20.23;;;4.13;;
11319;SDS011;5715;48.234;14.320;2022-12-18T10:36:08;3.47;;;3.17;;
11319;SDS011;5715;48.234;14.320;2022-12-18T10:39:39;2.83;;;2.27;;
11319;SDS011;5715;48.234;14.320;2022-12-18T10:42:11;5.70;;;3.47;;
11319;SDS011;5715;48.234;14.320;2022-12-18T10:45:15;4.10;;;3.80;;
11319;SDS011;5715;48.234;14.320;2022-12-18T10:48:04;12.37;;;2.70;;
11319;SDS011;5715;48.234;14.320;2022-12-18T10:51:06;5.40;;;3.50;;
11319;SDS011;5715;48.234;14.320;2022-12-18T10:54:05;2.87;;;2.20;;
11319;SDS011;5715;48.234;14.320;2022-12-18T10:57:42;5.90;;;4.30;;
11319;SDS011;5715;48.234;14.320;2022-12-18T11:00:27;4.27;;;3.63;;
11319;SDS011;5715;48.234;14.320;2022-12-18T11:03:39;6.13;;;3.90;;
11319;SDS011;5715;48.234;14.320;2022-12-18T11:06:28;7.50;;;4.23;;
11319;SDS011;5715;48.234;14.320;2022-12-18T11:09:21;4.10;;;3.50;;
11319;SDS011;5715;48.234;14.320;2022-12-18T11:12:21;4.27;;;3.57;;
11319;SDS011;5715;48.234;14.320;2022-12-18T11:15:15;5.37;;;3.37;;
11319;SDS011;5715;48.234;14.320;2022-12-18T11:18:26;5.67;;;5.10;;
11319;SDS011;5715;48.234;14.320;2022-12-18T11:21:18;3.30;;;2.87;;
11319;SDS011;5715;48.234;14.320;2022-12-18T11:24:07;5.07;;;4.30;;
11319;SDS011;5715;48.234;14.320;2022-12-18T11:27:28;9.03;;;4.47;;
11319;SDS011;5715;48.234;14.320;2022-12-18T11:33:20;8.90;;;4.80;;
11319;SDS011;5715;48.234;14.320;2022-12-18T11:36:09;5.90;;;4.30;;
11319;SDS011;5715;48.234;14.320;2022-12-18T11:38:59;7.00;;;4.80;;
11319;SDS011;5715;48.234;14.320;2022-12-18T11:42:04;8.73;;;5.07;;
11319;SDS011;5715;48.234;14.320;2022-12-18T11:45:21;3.20;;;2.93;;
11319;SDS011;5715;48.234;14.320;2022-12-18T11:48:21;6.37;;;4.70;;
11319;SDS011;5715;48.234;14.320;2022-12-18T11:51:43;4.40;;;4.00;;
11319;SDS011;5715;48.234;14.320;2022-12-18T11:54:37;4.23;;;3.43;;
11319;SDS011;5715;48.234;14.320;2022-12-18T12:00:26;5.63;;;3.93;;
11319;SDS011;5715;48.234;14.320;2022-12-18T12:07:25;4.30;;;3.90;;
11319;SDS011;5715;48.234;14.320;2022-12-18T12:16:17;5.77;;;4.10;;
11319;SDS011;5715;48.234;14.320;2022-12-18T12:19:36;4.73;;;2.97;;
11319;SDS011;5715;48.234;14.320;2022-12-18T12:26:01;3.97;;;3.33;;
11319;SDS011;5715;48.234;14.320;2022-12-18T12:29:00;4.87;;;4.00;;
11319;SDS011;5715;48.234;14.320;2022-12-18T12:32:22;7.33;;;4.03;;
11319;SDS011;5715;48.234;14.320;2022-12-18T12:35:52;5.63;;;3.73;;
11319;SDS011;5715;48.234;14.320;2022-12-18T12:39:05;8.57;;;4.47;;
11319;SDS011;5715;48.234;14.320;2022-12-18T12:42:03;5.10;;;4.10;;
11319;SDS011;5715;48.234;14.320;2022-12-18T12:45:17;6.97;;;4.37;;
11319;SDS011;5715;48.234;14.320;2022-12-18T12:48:31;4.13;;;3.73;;
11319;SDS011;5715;48.234;14.320;2022-12-18T12:51:35;12.70;;;6.00;;
11319;SDS011;5715;48.234;14.320;2022-12-18T12:54:27;6.43;;;4.30;;
11319;SDS011;5715;48.234;14.320;2022-12-18T12:57:33;5.57;;;4.97;;
11319;SDS011;5715;48.234;14.320;2022-12-18T13:00:27;3.33;;;3.00;;
11319;SDS011;5715;48.234;14.320;2022-12-18T13:13:16;8.77;;;3.97;;
11319;SDS011;5715;48.234;14.320;2022-12-18T13:16:10;5.10;;;4.03;;
11319;SDS011;5715;48.234;14.320;2022-12-18T13:18:57;10.57;;;4.13;;
11319;SDS011;5715;48.234;14.320;2022-12-18T13:21:45;9.20;;;5.23;;
11319;SDS011;5715;48.234;14.320;2022-12-18T13:24:42;4.57;;;4.17;;
11319;SDS011;5715;48.234;14.320;2022-12-18T13:36:13;4.00;;;3.60;;
11319;SDS011;5715;48.234;14.320;2022-12-18T13:45:40;6.83;;;3.70;;
11319;SDS011;5715;48.234;14.320;2022-12-18T13:48:34;3.67;;;2.63;;
11319;SDS011;5715;48.234;14.320;2022-12-18T13:51:25;19.70;;;6.33;;
11319;SDS011;5715;48.234;14.320;2022-12-18T14:00:32;9.33;;;5.87;;
11319;SDS011;5715;48.234;14.320;2022-12-18T14:03:22;5.27;;;4.00;;
11319;SDS011;5715;48.234;14.320;2022-12-18T14:06:13;4.60;;;4.20;;
11319;SDS011;5715;48.234;14.320;2022-12-18T14:09:02;9.40;;;5.17;;
11319;SDS011;5715;48.234;14.320;2022-12-18T14:11:55;6.83;;;5.17;;
11319;SDS011;5715;48.234;14.320;2022-12-18T14:15:06;3.90;;;3.60;;
11319;SDS011;5715;48.234;14.320;2022-12-18T14:21:54;4.83;;;3.53;;
11319;SDS011;5715;48.234;14.320;2022-12-18T14:24:43;8.43;;;3.97;;
11319;SDS011;5715;48.234;14.320;2022-12-18T14:27:30;4.83;;;4.23;;
11319;SDS011;5715;48.234;14.320;2022-12-18T14:33:15;4.00;;;3.70;;
11319;SDS011;5715;48.234;14.320;2022-12-18T14:36:14;6.27;;;4.80;;
11319;SDS011;5715;48.234;14.320;2022-12-18T14:39:05;5.23;;;4.37;;
11319;SDS011;5715;48.234;14.320;2022-12-18T14:42:03;3.47;;;3.17;;
11319;SDS011;5715;48.234;14.320;2022-12-18T14:44:51;6.13;;;3.57;;
11319;SDS011;5715;48.234;14.320;2022-12-18T14:47:59;6.23;;;4.23;;
11319;SDS011;5715;48.234;14.320;2022-12-18T14:50:57;3.57;;;3.03;;
11319;SDS011;5715;48.234;14.320;2022-12-18T14:54:13;7.03;;;4.37;;
11319;SDS011;5715;48.234;14.320;2022-12-18T14:57:06;5.03;;;3.03;;
11319;SDS011;5715;48.234;14.320;2022-12-18T15:00:23;4.77;;;4.10;;
11319;SDS011;5715;48.234;14.320;2022-12-18T15:03:14;13.17;;;6.03;;
11319;SDS011;5715;48.234;14.320;2022-12-18T15:06:21;3.20;;;2.57;;
11319;SDS011;5715;48.234;14.320;2022-12-18T15:09:23;5.73;;;5.20;;
11319;SDS011;5715;48.234;14.320;2022-12-18T15:13:05;7.03;;;3.87;;
11319;SDS011;5715;48.234;14.320;2022-12-18T15:18:32;3.63;;;2.93;;
11319;SDS011;5715;48.234;14.320;2022-12-18T15:21:27;4.07;;;2.87;;
11319;SDS011;5715;48.234;14.320;2022-12-18T15:24:18;3.90;;;3.40;;
11319;SDS011;5715;48.234;14.320;2022-12-18T15:27:32;5.63;;;5.03;;
11319;SDS011;5715;48.234;14.320;2022-12-18T15:30:24;5.60;;;5.10;;
11319;SDS011;5715;48.234;14.320;2022-12-18T15:33:16;7.03;;;5.03;;
11319;SDS011;5715;48.234;14.320;2022-12-18T15:36:14;6.97;;;3.73;;
11319;SDS011;5715;48.234;14.320;2022-12-18T15:39:12;8.73;;;4.30;;
11319;SDS011;5715;48.234;14.320;2022-12-18T15:42:00;3.47;;;3.13;;
11319;SDS011;5715;48.234;14.320;2022-12-18T15:45:08;6.97;;;4.07;;
11319;SDS011;5715;48.234;14.320;2022-12-18T15:47:59;4.30;;;3.60;;
11319;SDS011;5715;48.234;14.320;2022-12-18T15:50:48;6.70;;;3.83;;
11319;SDS011;5715;48.234;14.320;2022-12-18T15:53:43;5.03;;;4.50;;
11319;SDS011;5715;48.234;14.320;2022-12-18T15:56:33;5.87;;;5.30;;
11319;SDS011;5715;48.234;14.320;2022-12-18T15:59:39;7.87;;;5.97;;
11319;SDS011;5715;48.234;14.320;2022-12-18T16:02:27;7.33;;;4.50;;
11319;SDS011;5715;48.234;14.320;2022-12-18T16:05:16;3.87;;;3.57;;
11319;SDS011;5715;48.234;14.320;2022-12-18T16:08:05;7.13;;;2.97;;
11319;SDS011;5715;48.234;14.320;2022-12-18T16:10:53;7.40;;;4.17;;
11319;SDS011;5715;48.234;14.320;2022-12-18T16:13:41;6.63;;;4.03;;
11319;SDS011;5715;48.234;14.320;2022-12-18T16:16:29;6.40;;;4.30;;
11319;SDS011;5715;48.234;14.320;2022-12-18T16:19:17;9.13;;;5.77;;
11319;SDS011;5715;48.234;14.320;2022-12-18T16:22:05;4.30;;;3.07;;
11319;SDS011;5715;48.234;14.320;2022-12-18T16:25:26;4.27;;;3.87;;
11319;SDS011;5715;48.234;14.320;2022-12-18T16:28:15;11.63;;;5.03;;
11319;SDS011;5715;48.234;14.320;2022-12-18T16:31:03;5.50;;;4.63;;
11319;SDS011;5715;48.234;14.320;2022-12-18T16:34:09;7.87;;;4.83;;
11319;SDS011;5715;48.234;14.320;2022-12-18T16:37:21;8.30;;;5.13;;
11319;SDS011;5715;48.234;14.320;2022-12-18T16:40:10;2.87;;;2.40;;
11319;SDS011;5715;48.234;14.320;2022-12-18T16:43:02;4.93;;;3.30;;
11319;SDS011;5715;48.234;14.320;2022-12-18T16:45:49;9.93;;;8.93;;
11319;SDS011;5715;48.234;14.320;2022-12-18T16:48:37;4.00;;;3.80;;
11319;SDS011;5715;48.234;14.320;2022-12-18T16:51:25;5.47;;;4.10;;
11319;SDS011;5715;48.234;14.320;2022-12-18T16:54:14;4.00;;;3.70;;
11319;SDS011;5715;48.234;14.320;2022-12-18T16:57:05;4.90;;;4.50;;
11319;SDS011;5715;48.234;14.320;2022-12-18T16:59:54;6.77;;;3.57;;
11319;SDS011;5715;48.234;14.320;2022-12-18T17:02:50;4.37;;;4.07;;
11319;SDS011;5715;48.234;14.320;2022-12-18T17:05:38;12.87;;;5.73;;
11319;SDS011;5715;48.234;14.320;2022-12-18T17:08:26;5.83;;;5.30;;
11319;SDS011;5715;48.234;14.320;2022-12-18T17:11:13;6.33;;;4.67;;
11319;SDS011;5715;48.234;14.320;2022-12-18T17:14:12;2.60;;;2.20;;
11319;SDS011;5715;48.234;14.320;2022-12-18T17:17:06;6.93;;;4.50;;
11319;SDS011;5715;48.234;14.320;2022-12-18T17:20:08;8.67;;;7.80;;
11319;SDS011;5715;48.234;14.320;2022-12-18T17:22:56;4.70;;;3.87;;
11319;SDS011;5715;48.234;14.320;2022-12-18T17:25:48;8.07;;;6.07;;
11319;SDS011;5715;48.234;14.320;2022-12-18T17:28:39;4.70;;;4.23;;
11319;SDS011;5715;48.234;14.320;2022-12-18T17:31:28;4.70;;;4.27;;
11319;SDS011;5715;48.234;14.320;2022-12-18T17:34:17;15.77;;;4.87;;
11319;SDS011;5715;48.234;14.320;2022-12-18T17:37:05;4.17;;;3.13;;
11319;SDS011;5715;48.234;14.320;2022-12-18T17:39:52;4.30;;;3.00;;
11319;SDS011;5715;48.234;14.320;2022-12-18T17:42:40;3.47;;;3.00;;
11319;SDS011;5715;48.234;14.320;2022-12-18T17:45:28;5.50;;;4.20;;
11319;SDS011;5715;48.234;14.320;2022-12-18T17:48:18;5.63;;;4.60;;
11319;SDS011;5715;48.234;14.320;2022-12-18T17:51:07;7.23;;;6.53;;
11319;SDS011;5715;48.234;14.320;2022-12-18T17:53:57;5.50;;;5.10;;
11319;SDS011;5715;48.234;14.320;2022-12-18T17:56:54;7.73;;;3.77;;
11319;SDS011;5715;48.234;14.320;2022-12-18T17:59:41;14.27;;;12.57;;
11319;SDS011;5715;48.234;14.320;2022-12-18T18:02:29;8.90;;;8.03;;
11319;SDS011;5715;48.234;14.320;2022-12-18T18:05:17;5.87;;;4.10;;
11319;SDS011;5715;48.234;14.320;2022-12-18T18:08:05;5.33;;;3.40;;
11319;SDS011;5715;48.234;14.320;2022-12-18T18:10:54;4.27;;;3.87;;
11319;SDS011;5715;48.234;14.320;2022-12-18T18:14:02;5.60;;;4.53;;
11319;SDS011;5715;48.234;14.320;2022-12-18T18:16:57;6.93;;;3.67;;
11319;SDS011;5715;48.234;14.320;2022-12-18T18:19:50;6.83;;;6.33;;
11319;SDS011;5715;48.234;14.320;2022-12-18T18:22:38;8.40;;;4.47;;
11319;SDS011;5715;48.234;14.320;2022-12-18T18:25:25;5.07;;;3.67;;
11319;SDS011;5715;48.234;14.320;2022-12-18T18:28:14;4.93;;;4.50;;
11319;SDS011;5715;48.234;14.320;2022-12-18T18:31:05;4.83;;;4.20;;
11319;SDS011;5715;48.234;14.320;2022-12-18T18:33:56;4.77;;;4.03;;
11319;SDS011;5715;48.234;14.320;2022-12-18T18:36:43;7.80;;;4.67;;
11319;SDS011;5715;48.234;14.320;2022-12-18T18:39:34;5.67;;;3.80;;
11319;SDS011;5715;48.234;14.320;2022-12-18T18:42:22;6.90;;;3.03;;
11319;SDS011;5715;48.234;14.320;2022-12-18T18:45:09;7.97;;;6.20;;
11319;SDS011;5715;48.234;14.320;2022-12-18T18:47:57;6.60;;;5.20;;
11319;SDS011;5715;48.234;14.320;2022-12-18T18:50:53;4.47;;;4.07;;
11319;SDS011;5715;48.234;14.320;2022-12-18T18:53:46;8.17;;;3.33;;
11319;SDS011;5715;48.234;14.320;2022-12-18T18:56:36;8.53;;;3.20;;
11319;SDS011;5715;48.234;14.320;2022-12-18T18:59:45;7.53;;;4.37;;